Time;durP1;ratioP1;P1;durP2;ratioP2;P2;SDS_P1;SDS_P2;PMS_P1;PMS_P2;Temp;Humidity;BMP_temperature;BMP_pressure;BME280_temperature;BME280_humidity;BME280_pressure;Samples;Min_cycle;Max_cycle;Signal;HPM_P1;HPM_P2
2022/06/01 00:02:17;;;;;;;;;;;11.60;95.20;;;;;;5116462;28;19974;-75
2022/06/01 00:04:44;;;;;;;;;;;11.70;95.60;;;;;;5116430;28;19915;-76
2022/06/01 00:07:11;;;;;;;;;;;11.70;95.30;;;;;;5116380;28;19908;-76
2022/06/01 00:09:38;;;;;;;;;;;11.60;95.20;;;;;;5116007;28;20285;-76
2022/06/01 00:12:05;;;;;;;;;;;11.80;96.10;;;;;;5116163;28;19908;-76
2022/06/01 00:14:33;;;;;;;;;;;11.90;95.60;;;;;;5116198;28;19990;-76
2022/06/01 00:16:59;;;;;;;;;;;11.80;94.80;;;;;;5115955;28;19916;-76
2022/06/01 00:19:26;;;;;;;;;;;12.00;95.70;;;;;;5116128;28;19947;-76
2022/06/01 00:24:38;;;;;;;;;;;11.90;94.40;;;;;;5116183;28;19965;-76
2022/06/01 00:27:06;;;;;;;;;;;11.90;95.80;;;;;;5116236;28;19912;-75
2022/06/01 00:29:32;;;;;;;;;;;12.10;95.60;;;;;;5114492;28;19961;-76
2022/06/01 00:31:59;;;;;;;;;;;12.10;95.20;;;;;;5114662;28;19970;-76
2022/06/01 00:34:26;;;;;;;;;;;12.00;94.30;;;;;;5115726;28;19908;-76
2022/06/01 00:36:53;;;;;;;;;;;12.00;95.10;;;;;;5115604;28;20282;-76
2022/06/01 00:39:19;;;;;;;;;;;12.00;94.80;;;;;;5115523;28;19912;-76
2022/06/01 00:41:46;;;;;;;;;;;12.10;94.80;;;;;;5115528;28;19907;-76
2022/06/01 00:44:13;;;;;;;;;;;12.20;95.80;;;;;;5115601;28;19908;-75
2022/06/01 00:46:39;;;;;;;;;;;12.20;96.10;;;;;;5115335;28;19908;-76
2022/06/01 00:49:16;;;;;;;;;;;12.20;94.60;;;;;;5115679;28;20405;-76
2022/06/01 00:51:43;;;;;;;;;;;12.30;94.20;;;;;;5115014;28;19908;-76
2022/06/01 00:54:11;;;;;;;;;;;12.30;94.60;;;;;;5115527;28;20432;-76
2022/06/01 00:56:45;;;;;;;;;;;12.30;93.80;;;;;;5115434;28;20064;-76
2022/06/01 00:59:14;;;;;;;;;;;12.40;94.00;;;;;;5115393;28;20270;-76
2022/06/01 01:01:44;;;;;;;;;;;12.70;93.80;;;;;;5114899;28;19915;-76
2022/06/01 01:04:11;;;;;;;;;;;12.90;93.50;;;;;;5113753;28;19907;-76
2022/06/01 01:06:39;;;;;;;;;;;13.50;92.40;;;;;;5115104;28;19915;-76
2022/06/01 01:09:06;;;;;;;;;;;13.90;92.30;;;;;;5115085;28;19915;-76
2022/06/01 01:11:35;;;;;;;;;;;14.00;91.50;;;;;;5114813;28;20262;-76
2022/06/01 01:14:06;;;;;;;;;;;13.50;91.40;;;;;;5115022;28;19930;-76
2022/06/01 01:16:34;;;;;;;;;;;13.30;91.80;;;;;;5114883;28;20341;-76
2022/06/01 01:19:01;;;;;;;;;;;13.40;92.10;;;;;;5115065;28;19946;-76
2022/06/01 01:21:46;;;;;;;;;;;13.40;92.40;;;;;;5114754;28;20375;-76
2022/06/01 01:24:33;;;;;;;;;;;13.30;92.10;;;;;;5114939;28;20380;-76
2022/06/01 01:26:59;;;;;;;;;;;13.20;92.00;;;;;;5114660;28;19919;-76
2022/06/01 01:29:32;;;;;;;;;;;13.10;92.30;;;;;;5114495;28;19998;-76
2022/06/01 01:31:58;;;;;;;;;;;13.10;92.60;;;;;;5114824;28;19908;-76
2022/06/01 01:34:25;;;;;;;;;;;13.10;91.70;;;;;;5114640;28;19929;-76
2022/06/01 01:36:54;;;;;;;;;;;13.10;91.80;;;;;;5114310;28;19923;-76
2022/06/01 01:39:21;;;;;;;;;;;13.10;91.60;;;;;;5114360;28;19951;-76
2022/06/01 01:41:51;;;;;;;;;;;13.10;91.40;;;;;;5114321;28;19916;-77
2022/06/01 01:44:40;;;;;;;;;;;13.00;91.70;;;;;;5114390;28;19908;-76
2022/06/01 01:47:07;;;;;;;;;;;13.00;91.60;;;;;;5114542;28;19916;-76
2022/06/01 01:49:35;;;;;;;;;;;12.90;92.00;;;;;;5114286;28;20415;-76
2022/06/01 01:52:04;;;;;;;;;;;12.90;92.10;;;;;;5114181;28;19920;-76
2022/06/01 01:54:49;;;;;;;;;;;13.00;91.60;;;;;;5114130;28;19908;-76
2022/06/01 01:57:23;;;;;;;;;;;13.00;92.60;;;;;;5114166;28;20357;-77
2022/06/01 01:59:50;;;;;;;;;;;12.90;91.70;;;;;;5113815;28;20635;-77
2022/06/01 02:02:45;;;;;;;;;;;13.00;91.80;;;;;;5114211;28;19907;-76
2022/06/01 02:08:04;;;;;;;;;;;13.00;91.30;;;;;;5114111;28;19918;-76
2022/06/01 02:13:17;;;;;;;;;;;13.10;91.10;;;;;;5114010;28;20012;-76
2022/06/01 02:15:44;;;;;;;;;;;13.00;90.90;;;;;;5113646;28;19912;-76
2022/06/01 02:18:15;;;;;;;;;;;13.00;92.00;;;;;;5113948;28;20370;-76
2022/06/01 02:20:44;;;;;;;;;;;13.00;91.20;;;;;;5114054;28;19908;-76
2022/06/01 02:23:14;;;;;;;;;;;13.10;92.20;;;;;;5114015;28;19954;-75
2022/06/01 02:25:44;;;;;;;;;;;13.20;91.60;;;;;;5113589;28;19908;-76
2022/06/01 02:28:11;;;;;;;;;;;13.20;90.80;;;;;;5113741;28;19908;-76
2022/06/01 02:30:42;;;;;;;;;;;13.10;92.00;;;;;;5113405;28;20381;-76
2022/06/01 02:33:11;;;;;;;;;;;13.10;90.60;;;;;;5113650;28;19907;-76
2022/06/01 02:35:40;;;;;;;;;;;13.20;91.20;;;;;;5112100;28;19919;-76
2022/06/01 02:38:10;;;;;;;;;;;13.20;90.80;;;;;;5113543;28;20313;-76
2022/06/01 02:40:37;;;;;;;;;;;13.10;90.60;;;;;;5113370;28;19912;-76
2022/06/01 02:43:04;;;;;;;;;;;13.10;90.90;;;;;;5113461;28;19935;-76
2022/06/01 02:45:30;;;;;;;;;;;13.10;91.50;;;;;;5113154;28;19914;-76
2022/06/01 02:47:59;;;;;;;;;;;13.10;90.10;;;;;;5113541;28;20003;-76
2022/06/01 02:50:27;;;;;;;;;;;13.10;90.00;;;;;;5113278;28;19907;-76
2022/06/01 02:52:54;;;;;;;;;;;13.10;90.40;;;;;;5116561;28;19919;-76
2022/06/01 02:55:22;;;;;;;;;;;13.10;90.70;;;;;;5117654;28;19908;-76
2022/06/01 02:57:49;;;;;;;;;;;13.20;91.40;;;;;;5116153;28;19912;-76
2022/06/01 03:00:30;;;;;;;;;;;13.20;91.40;;;;;;5117506;28;20297;-76
2022/06/01 03:02:58;;;;;;;;;;;13.20;88.40;;;;;;5117614;28;19991;-77
2022/06/01 03:05:27;;;;;;;;;;;13.30;89.30;;;;;;5117643;28;19908;-76
2022/06/01 03:07:53;;;;;;;;;;;13.30;89.90;;;;;;5117290;28;19961;-76
2022/06/01 03:10:20;;;;;;;;;;;13.30;88.90;;;;;;5117368;28;19915;-76
2022/06/01 03:12:47;;;;;;;;;;;13.30;89.80;;;;;;5117372;28;19919;-76
2022/06/01 03:15:15;;;;;;;;;;;13.30;89.90;;;;;;5117089;28;19908;-76
2022/06/01 03:17:42;;;;;;;;;;;13.40;89.20;;;;;;5116858;28;20392;-76
2022/06/01 03:20:09;;;;;;;;;;;13.30;90.70;;;;;;5117097;28;20308;-76
2022/06/01 03:22:36;;;;;;;;;;;13.40;89.30;;;;;;5117207;28;19988;-73
2022/06/01 03:25:07;;;;;;;;;;;13.40;90.30;;;;;;5117023;28;19908;-75
2022/06/01 03:27:34;;;;;;;;;;;13.30;89.40;;;;;;5116898;28;19953;-76
2022/06/01 03:30:01;;;;;;;;;;;13.30;90.00;;;;;;5116804;28;20419;-76
2022/06/01 03:32:27;;;;;;;;;;;13.30;89.40;;;;;;5117223;28;19972;-76
2022/06/01 03:34:54;;;;;;;;;;;13.30;90.50;;;;;;5117141;28;19969;-75
2022/06/01 03:37:21;;;;;;;;;;;13.30;91.40;;;;;;5117089;28;20350;-76
2022/06/01 03:39:47;;;;;;;;;;;13.30;90.30;;;;;;5116717;28;19916;-76
2022/06/01 03:42:14;;;;;;;;;;;13.30;90.20;;;;;;5116865;28;19908;-76
2022/06/01 03:47:25;;;;;;;;;;;13.30;90.10;;;;;;5116909;28;20369;-77
2022/06/01 03:49:52;;;;;;;;;;;13.30;89.90;;;;;;5116423;28;19908;-76
2022/06/01 03:52:19;;;;;;;;;;;13.30;88.40;;;;;;5116467;28;19927;-76
2022/06/01 03:54:46;;;;;;;;;;;13.30;90.20;;;;;;5116636;28;19908;-76
2022/06/01 03:57:13;;;;;;;;;;;13.30;90.00;;;;;;5116416;28;19916;-76
2022/06/01 03:59:39;;;;;;;;;;;13.40;90.20;;;;;;5116096;28;20315;-76
2022/06/01 04:02:06;;;;;;;;;;;13.40;90.70;;;;;;5115919;28;19907;-76
2022/06/01 04:04:34;;;;;;;;;;;13.40;89.80;;;;;;5116326;28;20370;-76
2022/06/01 04:07:01;;;;;;;;;;;13.40;90.40;;;;;;5116182;28;20262;-76
2022/06/01 04:09:29;;;;;;;;;;;13.40;90.20;;;;;;5116122;28;19912;-76
2022/06/01 04:11:56;;;;;;;;;;;13.40;90.20;;;;;;5116181;28;19908;-76
2022/06/01 04:14:23;;;;;;;;;;;13.40;90.70;;;;;;5116112;28;19976;-76
2022/06/01 04:16:50;;;;;;;;;;;13.40;90.10;;;;;;5116340;28;19915;-76
2022/06/01 04:19:17;;;;;;;;;;;13.40;90.20;;;;;;5116127;28;19908;-76
2022/06/01 04:21:45;;;;;;;;;;;13.40;91.10;;;;;;5115928;28;19908;-76
2022/06/01 04:24:13;;;;;;;;;;;13.30;91.00;;;;;;5116042;28;20359;-77
2022/06/01 04:26:40;;;;;;;;;;;13.30;90.60;;;;;;5115973;28;20348;-76
2022/06/01 04:29:07;;;;;;;;;;;13.30;90.50;;;;;;5115903;28;19918;-76
2022/06/01 04:31:34;;;;;;;;;;;13.30;90.50;;;;;;5115604;28;19908;-76
2022/06/01 04:34:01;;;;;;;;;;;13.20;90.50;;;;;;5115892;28;19908;-76
2022/06/01 04:36:28;;;;;;;;;;;13.20;90.70;;;;;;5115713;28;19920;-76
2022/06/01 04:38:54;;;;;;;;;;;13.10;90.90;;;;;;5115754;28;19908;-76
2022/06/01 04:41:21;;;;;;;;;;;13.10;91.10;;;;;;5115680;28;19907;-76
2022/06/01 04:43:48;;;;;;;;;;;13.10;91.60;;;;;;5115164;28;20350;-76
2022/06/01 04:46:14;;;;;;;;;;;13.00;91.40;;;;;;5115592;28;19908;-76
2022/06/01 04:48:41;;;;;;;;;;;13.00;91.50;;;;;;5114113;28;20266;-76
2022/06/01 04:51:07;;;;;;;;;;;13.00;92.40;;;;;;5115345;28;19919;-76
2022/06/01 04:53:34;;;;;;;;;;;12.90;91.90;;;;;;5115203;28;19935;-77
2022/06/01 04:56:01;;;;;;;;;;;12.90;91.70;;;;;;5115273;28;19965;-76
2022/06/01 04:58:27;;;;;;;;;;;12.90;92.30;;;;;;5115108;28;19916;-76
2022/06/01 05:00:54;;;;;;;;;;;12.80;92.60;;;;;;5115447;28;19959;-76
2022/06/01 05:03:21;;;;;;;;;;;12.80;92.40;;;;;;5115030;28;19915;-77
2022/06/01 05:05:48;;;;;;;;;;;12.90;92.90;;;;;;5114830;28;19939;-76
2022/06/01 05:08:15;;;;;;;;;;;12.90;93.70;;;;;;5114953;28;19907;-76
2022/06/01 05:10:42;;;;;;;;;;;12.90;92.70;;;;;;5114808;28;19943;-76
2022/06/01 05:13:09;;;;;;;;;;;12.90;93.00;;;;;;5114741;28;19908;-76
2022/06/01 05:15:44;;;;;;;;;;;12.90;92.90;;;;;;5113986;28;20011;-77
2022/06/01 05:18:11;;;;;;;;;;;12.90;93.20;;;;;;5114788;28;20402;-76
2022/06/01 05:20:38;;;;;;;;;;;12.90;93.20;;;;;;5114843;28;19911;-76
2022/06/01 05:23:05;;;;;;;;;;;12.90;93.40;;;;;;5114595;28;19915;-77
2022/06/01 05:25:31;;;;;;;;;;;12.90;93.40;;;;;;5114597;28;20358;-76
2022/06/01 05:27:58;;;;;;;;;;;12.90;94.30;;;;;;5114569;28;19936;-75
2022/06/01 05:30:24;;;;;;;;;;;12.90;93.40;;;;;;5114673;28;20004;-75
2022/06/01 05:32:51;;;;;;;;;;;12.90;94.20;;;;;;5114522;28;19908;-76
2022/06/01 05:35:18;;;;;;;;;;;12.90;93.50;;;;;;5114338;28;19912;-76
2022/06/01 05:37:44;;;;;;;;;;;12.80;93.40;;;;;;5114419;28;19934;-76
2022/06/01 05:40:11;;;;;;;;;;;12.80;93.30;;;;;;5114549;28;19912;-75
2022/06/01 05:42:38;;;;;;;;;;;12.80;93.80;;;;;;5114237;28;19998;-75
2022/06/01 05:45:05;;;;;;;;;;;12.80;93.70;;;;;;5114251;28;19908;-76
2022/06/01 05:47:32;;;;;;;;;;;12.80;93.70;;;;;;5114096;28;19909;-76
2022/06/01 05:49:58;;;;;;;;;;;12.70;94.50;;;;;;5114171;28;19915;-76
2022/06/01 05:52:25;;;;;;;;;;;12.70;94.20;;;;;;5114147;28;20370;-76
2022/06/01 05:54:52;;;;;;;;;;;12.70;95.30;;;;;;5114110;28;20346;-76
2022/06/01 05:57:18;;;;;;;;;;;12.70;94.20;;;;;;5114190;28;20010;-75
2022/06/01 05:59:45;;;;;;;;;;;12.70;95.30;;;;;;5113799;28;19908;-75
2022/06/01 06:02:12;;;;;;;;;;;12.70;94.30;;;;;;5114058;28;19908;-75
2022/06/01 06:04:38;;;;;;;;;;;12.60;94.50;;;;;;5114091;28;20369;-75
2022/06/01 06:07:05;;;;;;;;;;;12.70;94.10;;;;;;5113921;28;19911;-75
2022/06/01 06:09:32;;;;;;;;;;;12.60;94.50;;;;;;5113767;28;19907;-75
2022/06/01 06:11:59;;;;;;;;;;;12.60;94.70;;;;;;5113767;28;20399;-76
2022/06/01 06:14:25;;;;;;;;;;;12.60;94.90;;;;;;5113807;28;19961;-75
2022/06/01 06:16:52;;;;;;;;;;;12.60;95.40;;;;;;5113721;28;19916;-76
2022/06/01 06:19:20;;;;;;;;;;;12.60;95.90;;;;;;5113818;28;20354;-76
2022/06/01 06:21:47;;;;;;;;;;;12.50;95.10;;;;;;5113527;28;19990;-76
2022/06/01 06:24:16;;;;;;;;;;;12.50;95.20;;;;;;5113772;28;19953;-76
2022/06/01 06:26:43;;;;;;;;;;;12.50;95.10;;;;;;5112745;28;19930;-75
2022/06/01 06:29:11;;;;;;;;;;;12.50;95.80;;;;;;5113428;28;19914;-75
2022/06/01 06:31:38;;;;;;;;;;;12.50;95.10;;;;;;5113573;28;20547;-76
2022/06/01 06:34:04;;;;;;;;;;;12.50;95.40;;;;;;5113617;28;19907;-75
2022/06/01 06:36:31;;;;;;;;;;;12.40;95.50;;;;;;5113423;28;19964;-75
2022/06/01 06:38:58;;;;;;;;;;;12.50;95.80;;;;;;5113617;28;20369;-75
2022/06/01 06:41:25;;;;;;;;;;;12.50;95.30;;;;;;5113611;28;20379;-75
2022/06/01 06:43:52;;;;;;;;;;;12.40;96.10;;;;;;5113206;28;19954;-76
2022/06/01 06:46:20;;;;;;;;;;;12.40;96.40;;;;;;5113490;28;19908;-75
2022/06/01 06:48:50;;;;;;;;;;;12.30;96.50;;;;;;5113470;28;19908;-75
2022/06/01 06:51:18;;;;;;;;;;;12.30;95.80;;;;;;5111902;28;20362;-76
2022/06/01 06:53:44;;;;;;;;;;;12.30;95.80;;;;;;5110891;28;19924;-75
2022/06/01 06:56:11;;;;;;;;;;;12.30;96.40;;;;;;5111178;28;19915;-75
2022/06/01 06:58:40;;;;;;;;;;;12.20;97.20;;;;;;5111050;28;19912;-75
2022/06/01 07:01:07;;;;;;;;;;;12.20;97.00;;;;;;5111131;28;20006;-76
2022/06/01 07:03:34;;;;;;;;;;;12.20;97.00;;;;;;5110992;28;19968;-76
2022/06/01 07:06:11;;;;;;;;;;;12.10;97.20;;;;;;5110524;28;19908;-75
2022/06/01 07:08:39;;;;;;;;;;;12.10;97.10;;;;;;5110931;28;19918;-75
2022/06/01 07:11:06;;;;;;;;;;;12.00;97.30;;;;;;5110810;28;19911;-75
2022/06/01 07:13:33;;;;;;;;;;;12.00;97.20;;;;;;5110656;28;20023;-75
2022/06/01 07:16:22;;;;;;;;;;;12.00;96.70;;;;;;5111013;28;19947;-75
2022/06/01 07:18:50;;;;;;;;;;;11.90;97.90;;;;;;5110656;28;19912;-75
2022/06/01 07:21:17;;;;;;;;;;;11.90;97.10;;;;;;5110997;28;19908;-75
2022/06/01 07:23:44;;;;;;;;;;;11.90;97.10;;;;;;5110919;28;19908;-76
2022/06/01 07:26:12;;;;;;;;;;;11.80;98.00;;;;;;5111198;28;19908;-75
2022/06/01 07:28:39;;;;;;;;;;;11.90;97.80;;;;;;5111085;28;19953;-76
2022/06/01 07:31:06;;;;;;;;;;;11.80;97.50;;;;;;5110825;28;19907;-77
2022/06/01 07:33:33;;;;;;;;;;;11.90;96.90;;;;;;5110888;28;19912;-77
2022/06/01 07:36:02;;;;;;;;;;;11.80;97.90;;;;;;5109638;28;19974;-75
2022/06/01 07:44:08;;;;;;;;;;;11.80;97.50;;;;;;5114266;28;19953;-77
2022/06/01 07:46:35;;;;;;;;;;;11.80;97.60;;;;;;5114495;28;19915;-76
2022/06/01 07:49:02;;;;;;;;;;;11.80;97.50;;;;;;5114369;28;19952;-77
2022/06/01 07:51:28;;;;;;;;;;;11.80;97.50;;;;;;5114587;28;19908;-77
2022/06/01 07:53:55;;;;;;;;;;;11.80;97.80;;;;;;5114275;28;19948;-75
2022/06/01 07:56:22;;;;;;;;;;;11.70;98.00;;;;;;5114019;28;20010;-75
2022/06/01 07:58:48;;;;;;;;;;;11.70;98.00;;;;;;5114301;28;20397;-75
2022/06/01 08:01:15;;;;;;;;;;;11.70;97.90;;;;;;5114350;28;19908;-76
2022/06/01 08:03:41;;;;;;;;;;;11.70;98.80;;;;;;5114154;28;19912;-76
2022/06/01 08:06:08;;;;;;;;;;;11.60;98.50;;;;;;5114141;28;19953;-76
2022/06/01 08:08:35;;;;;;;;;;;11.70;98.80;;;;;;5114191;28;20274;-75
2022/06/01 08:11:01;;;;;;;;;;;11.60;98.60;;;;;;5113881;28;20289;-76
2022/06/01 08:13:28;;;;;;;;;;;11.60;98.60;;;;;;5113961;28;19922;-77
2022/06/01 08:15:55;;;;;;;;;;;11.60;98.60;;;;;;5114081;28;19916;-76
2022/06/01 08:18:24;;;;;;;;;;;11.60;98.80;;;;;;5113982;28;19915;-76
2022/06/01 08:20:51;;;;;;;;;;;11.50;98.50;;;;;;5114038;28;19930;-76
2022/06/01 08:23:18;;;;;;;;;;;11.60;99.50;;;;;;5113327;28;20132;-74
2022/06/01 08:25:45;;;;;;;;;;;11.50;98.80;;;;;;5113750;28;20370;-75
2022/06/01 08:28:12;;;;;;;;;;;11.50;98.90;;;;;;5113641;28;19908;-75
2022/06/01 08:30:39;;;;;;;;;;;11.50;99.20;;;;;;5113724;28;19908;-76
2022/06/01 08:33:07;;;;;;;;;;;11.60;99.90;;;;;;5113759;28;19942;-75
2022/06/01 08:35:35;;;;;;;;;;;11.50;99.60;;;;;;5113116;28;20273;-75
2022/06/01 08:38:01;;;;;;;;;;;11.50;99.20;;;;;;5113948;28;20006;-75
2022/06/01 08:40:37;;;;;;;;;;;11.50;99.30;;;;;;5115772;28;20370;-75
2022/06/01 08:43:06;;;;;;;;;;;11.40;99.50;;;;;;5113767;28;19919;-75
2022/06/01 08:45:33;;;;;;;;;;;11.40;99.90;;;;;;5113746;28;20002;-75
2022/06/01 08:48:00;;;;;;;;;;;11.50;99.90;;;;;;5113971;28;19915;-75
2022/06/01 08:50:34;;;;;;;;;;;11.30;99.90;;;;;;5112324;28;19908;-75
2022/06/01 08:53:04;;;;;;;;;;;11.30;99.90;;;;;;5113405;28;19920;-75
2022/06/01 08:55:35;;;;;;;;;;;11.30;99.90;;;;;;5113339;28;19973;-75
2022/06/01 08:58:07;;;;;;;;;;;11.30;99.90;;;;;;5113403;28;19923;-75
2022/06/01 09:00:36;;;;;;;;;;;11.30;99.90;;;;;;5113308;28;20274;-75
2022/06/01 09:03:10;;;;;;;;;;;11.30;99.90;;;;;;5112877;28;19998;-75
2022/06/01 09:05:39;;;;;;;;;;;11.30;99.90;;;;;;5113782;28;19943;-75
2022/06/01 09:08:24;;;;;;;;;;;11.40;99.90;;;;;;5115152;28;19915;-75
2022/06/01 09:10:54;;;;;;;;;;;11.40;99.90;;;;;;5115202;28;19908;-75
2022/06/01 09:13:26;;;;;;;;;;;11.40;99.90;;;;;;5114954;28;20247;-75
2022/06/01 09:15:52;;;;;;;;;;;11.50;99.90;;;;;;5114908;28;19916;-75
2022/06/01 09:18:22;;;;;;;;;;;11.50;99.90;;;;;;5115077;28;20350;-75
2022/06/01 09:23:34;;;;;;;;;;;11.40;99.90;;;;;;5074917;28;19962;-75
2022/06/01 09:26:03;;;;;;;;;;;11.50;99.90;;;;;;5074229;28;19909;-75
2022/06/01 09:28:30;;;;;;;;;;;11.40;99.90;;;;;;5074054;28;19920;-75
2022/06/01 09:30:57;;;;;;;;;;;11.30;99.90;;;;;;5073445;28;19908;-75
2022/06/01 09:33:34;;;;;;;;;;;11.30;99.90;;;;;;5106660;28;20470;-75
2022/06/01 09:36:01;;;;;;;;;;;11.30;99.90;;;;;;5074094;28;19912;-75
2022/06/01 09:38:48;;;;;;;;;;;11.30;99.90;;;;;;5074211;28;20379;-75
2022/06/01 09:41:24;;;;;;;;;;;11.30;99.90;;;;;;5073902;28;19909;-76
2022/06/01 09:43:54;;;;;;;;;;;11.20;99.90;;;;;;5073412;28;19913;-76
2022/06/01 09:46:35;;;;;;;;;;;11.20;99.90;;;;;;5073088;28;19909;-76
2022/06/01 09:49:10;;;;;;;;;;;11.20;99.90;;;;;;5073968;28;19908;-75
2022/06/01 09:51:41;;;;;;;;;;;11.20;99.90;;;;;;5073435;28;19993;-75
2022/06/01 09:54:08;;;;;;;;;;;11.10;99.90;;;;;;5073772;28;19989;-76
2022/06/01 09:56:40;;;;;;;;;;;11.10;99.90;;;;;;5073489;28;19912;-75
2022/06/01 10:07:28;;;;;;;;;;;11.10;99.90;;;;;;5073765;28;20416;-75
2022/06/01 10:09:59;;;;;;;;;;;11.10;99.90;;;;;;5073406;28;20349;-75
2022/06/01 10:12:35;;;;;;;;;;;11.10;99.90;;;;;;5073362;28;19932;-75
2022/06/01 10:15:03;;;;;;;;;;;11.00;99.90;;;;;;5106017;28;19916;-75
2022/06/01 10:17:38;;;;;;;;;;;11.00;99.90;;;;;;5073266;28;20280;-75
2022/06/01 10:20:16;;;;;;;;;;;11.00;99.90;;;;;;5073425;28;20362;-75
2022/06/01 10:22:46;;;;;;;;;;;11.00;99.90;;;;;;5073481;28;19962;-76
2022/06/01 10:25:15;;;;;;;;;;;10.90;99.90;;;;;;5073371;28;19915;-75
2022/06/01 10:27:54;;;;;;;;;;;10.90;99.90;;;;;;5073016;28;19955;-75
2022/06/01 10:30:28;;;;;;;;;;;10.90;99.90;;;;;;5073425;28;19950;-75
2022/06/01 10:33:15;;;;;;;;;;;10.90;99.90;;;;;;5073250;28;20382;-75
2022/06/01 10:35:45;;;;;;;;;;;10.80;99.90;;;;;;5072878;28;19985;-75
2022/06/01 10:38:18;;;;;;;;;;;10.90;99.90;;;;;;5073389;28;19999;-74
2022/06/01 10:40:48;;;;;;;;;;;10.90;99.90;;;;;;5073372;28;19993;-75
2022/06/01 10:43:24;;;;;;;;;;;10.90;99.90;;;;;;5073023;28;19909;-75
2022/06/01 10:45:52;;;;;;;;;;;10.90;99.90;;;;;;5073079;28;20355;-75
2022/06/01 10:48:29;;;;;;;;;;;10.90;99.90;;;;;;5073239;28;19970;-75
2022/06/01 10:50:59;;;;;;;;;;;10.90;99.90;;;;;;5073285;28;20345;-74
2022/06/01 10:53:37;;;;;;;;;;;10.90;99.90;;;;;;5073053;28;19921;-75
2022/06/01 10:56:04;;;;;;;;;;;10.90;99.90;;;;;;5073002;28;19927;-74
2022/06/01 10:58:31;;;;;;;;;;;10.80;99.90;;;;;;5072925;28;19970;-75
2022/06/01 11:01:08;;;;;;;;;;;10.80;99.90;;;;;;5073005;28;20000;-74
2022/06/01 11:03:53;;;;;;;;;;;10.90;99.90;;;;;;5072837;28;19908;-75
2022/06/01 11:06:28;;;;;;;;;;;10.90;99.90;;;;;;5073059;28;19913;-75
2022/06/01 11:08:58;;;;;;;;;;;10.90;99.90;;;;;;5073101;28;19915;-75
2022/06/01 11:11:43;;;;;;;;;;;10.90;99.90;;;;;;5072749;28;19915;-74
2022/06/01 11:14:18;;;;;;;;;;;10.90;99.90;;;;;;5076171;28;20003;-77
2022/06/01 11:16:54;;;;;;;;;;;10.80;99.90;;;;;;5075894;28;19916;-74
2022/06/01 11:19:42;;;;;;;;;;;10.80;99.90;;;;;;5076758;28;20382;-75
2022/06/01 11:22:11;;;;;;;;;;;10.80;99.90;;;;;;5076851;28;19930;-75
2022/06/01 11:24:58;;;;;;;;;;;10.80;99.90;;;;;;5076672;28;20302;-77
2022/06/01 11:27:31;;;;;;;;;;;10.80;99.90;;;;;;5076180;28;19916;-76
2022/06/01 11:30:10;;;;;;;;;;;10.80;99.90;;;;;;5076138;28;19913;-76
2022/06/01 11:32:37;;;;;;;;;;;10.80;99.90;;;;;;5076420;28;19908;-76
2022/06/01 11:35:06;;;;;;;;;;;10.80;99.90;;;;;;5076463;28;19915;-75
2022/06/01 11:37:46;;;;;;;;;;;10.70;99.90;;;;;;5075906;28;19975;-75
2022/06/01 11:40:12;;;;;;;;;;;10.70;99.90;;;;;;5076287;28;19908;-75
2022/06/01 11:42:42;;;;;;;;;;;10.70;99.90;;;;;;5075849;28;20003;-75
2022/06/01 11:45:31;;;;;;;;;;;10.70;99.90;;;;;;5073291;28;19991;-77
2022/06/01 11:48:07;;;;;;;;;;;10.70;99.90;;;;;;5074024;28;19913;-74
2022/06/01 11:50:52;;;;;;;;;;;10.70;99.90;;;;;;5074027;28;19947;-77
2022/06/01 11:53:28;;;;;;;;;;;10.60;99.90;;;;;;5073960;28;20321;-76
2022/06/01 11:56:05;;;;;;;;;;;10.60;99.90;;;;;;5073248;28;19916;-76
2022/06/01 11:58:32;;;;;;;;;;;10.70;99.90;;;;;;5073699;28;19951;-76
2022/06/01 12:01:32;;;;;;;;;;;10.70;99.90;;;;;;5073470;28;19915;-78
2022/06/01 12:04:24;;;;;;;;;;;10.60;99.90;;;;;;5073633;28;19909;-77
2022/06/01 12:06:54;;;;;;;;;;;10.60;99.90;;;;;;5072491;28;20003;-77
2022/06/01 12:09:29;;;;;;;;;;;10.60;99.90;;;;;;5073676;28;19919;-76
2022/06/01 12:11:56;;;;;;;;;;;10.60;99.90;;;;;;5072086;28;19915;-75
2022/06/01 12:14:27;;;;;;;;;;;10.60;99.90;;;;;;5073595;28;20000;-74
2022/06/01 12:17:12;;;;;;;;;;;10.60;99.90;;;;;;5073185;28;20308;-74
2022/06/01 12:19:44;;;;;;;;;;;10.60;99.90;;;;;;5073217;28;19916;-75
2022/06/01 12:28:31;;;;;;;;;;;10.60;99.90;;;;;;5073032;28;20422;-78
2022/06/01 12:30:54;;;;;;;;;;;10.60;99.90;;;;;;5072797;28;19920;-77
2022/06/01 12:33:21;;;;;;;;;;;10.60;99.90;;;;;;5073217;28;19913;-74
2022/06/01 12:35:49;;;;;;;;;;;10.60;99.90;;;;;;5072511;28;19913;-74
2022/06/01 12:38:19;;;;;;;;;;;10.50;99.90;;;;;;5073163;28;20109;-74
2022/06/01 12:41:17;;;;;;;;;;;10.50;99.90;;;;;;5073187;28;20351;-77
2022/06/01 12:43:53;;;;;;;;;;;10.50;99.90;;;;;;5060211;28;19923;-74
2022/06/01 12:46:30;;;;;;;;;;;10.50;99.90;;;;;;5072203;28;20018;-75
2022/06/01 12:49:15;;;;;;;;;;;10.50;99.90;;;;;;5072704;28;19962;-75
2022/06/01 12:51:43;;;;;;;;;;;10.40;99.90;;;;;;5072521;28;19973;-75
2022/06/01 12:54:10;;;;;;;;;;;10.40;99.90;;;;;;5072764;28;19944;-75
2022/06/01 12:56:46;;;;;;;;;;;10.40;99.90;;;;;;5072547;28;20021;-75
2022/06/01 12:59:17;;;;;;;;;;;10.40;99.90;;;;;;5072147;28;19908;-75
2022/06/01 13:01:43;;;;;;;;;;;10.40;99.90;;;;;;5072233;28;19958;-75
2022/06/01 13:04:10;;;;;;;;;;;10.40;99.90;;;;;;5072796;28;20338;-75
2022/06/01 13:06:43;;;;;;;;;;;10.40;99.90;;;;;;5072542;28;19909;-75
2022/06/01 13:09:11;;;;;;;;;;;10.40;99.90;;;;;;5072385;28;20428;-75
2022/06/01 13:11:38;;;;;;;;;;;10.40;99.90;;;;;;5071979;28;20355;-75
2022/06/01 13:14:08;;;;;;;;;;;10.50;99.90;;;;;;5071876;28;19912;-75
2022/06/01 13:16:37;;;;;;;;;;;10.50;99.90;;;;;;5072039;28;19912;-75
2022/06/01 13:19:21;;;;;;;;;;;10.40;99.90;;;;;;5072240;28;20007;-75
2022/06/01 13:21:51;;;;;;;;;;;10.40;99.90;;;;;;5071928;28;19912;-75
2022/06/01 13:24:18;;;;;;;;;;;10.50;99.90;;;;;;5072234;28;19919;-75
2022/06/01 13:26:48;;;;;;;;;;;10.50;99.90;;;;;;5072190;28;19908;-74
2022/06/01 13:29:24;;;;;;;;;;;10.50;99.90;;;;;;5071255;28;19916;-75
2022/06/01 13:31:52;;;;;;;;;;;10.50;99.90;;;;;;5071956;28;19985;-74
2022/06/01 13:34:23;;;;;;;;;;;10.50;99.90;;;;;;5071654;28;19947;-75
2022/06/01 13:36:51;;;;;;;;;;;10.40;99.90;;;;;;5071471;28;19967;-74
2022/06/01 13:39:26;;;;;;;;;;;10.40;99.90;;;;;;5071980;28;20624;-75
2022/06/01 13:41:55;;;;;;;;;;;10.40;99.90;;;;;;5071385;28;19922;-75
2022/06/01 13:44:39;;;;;;;;;;;10.40;99.90;;;;;;5071882;28;20007;-75
2022/06/01 13:47:08;;;;;;;;;;;10.30;99.90;;;;;;5072028;28;19913;-75
2022/06/01 13:49:34;;;;;;;;;;;10.30;99.90;;;;;;5071668;28;19931;-75
2022/06/01 13:52:03;;;;;;;;;;;10.40;99.90;;;;;;5071555;28;20077;-75
2022/06/01 13:54:31;;;;;;;;;;;10.40;99.90;;;;;;5071392;28;19923;-75
2022/06/01 13:57:05;;;;;;;;;;;10.40;99.90;;;;;;5071397;28;19928;-75
2022/06/01 13:59:39;;;;;;;;;;;10.40;99.90;;;;;;5071402;28;20392;-75
2022/06/01 14:02:06;;;;;;;;;;;10.50;99.90;;;;;;5071657;28;19965;-75
2022/06/01 14:04:36;;;;;;;;;;;10.40;99.90;;;;;;5071619;28;20431;-75
2022/06/01 14:07:07;;;;;;;;;;;10.30;99.90;;;;;;5071187;28;20396;-75
2022/06/01 14:09:35;;;;;;;;;;;10.30;99.90;;;;;;5071194;28;19962;-75
2022/06/01 14:12:02;;;;;;;;;;;10.30;99.90;;;;;;5071320;28;19931;-75
2022/06/01 14:14:35;;;;;;;;;;;10.30;99.90;;;;;;5071529;28;19997;-75
2022/06/01 14:17:02;;;;;;;;;;;10.30;99.90;;;;;;5071441;28;19917;-75
2022/06/01 14:19:29;;;;;;;;;;;10.40;99.90;;;;;;5103828;28;19909;-75
2022/06/01 14:21:56;;;;;;;;;;;10.40;99.90;;;;;;5071241;28;20282;-75
2022/06/01 14:24:24;;;;;;;;;;;10.30;99.90;;;;;;5071206;28;19909;-75
2022/06/01 14:29:36;;;;;;;;;;;10.40;99.90;;;;;;5071485;28;19985;-74
2022/06/01 14:32:04;;;;;;;;;;;10.40;99.90;;;;;;5071290;28;19909;-75
2022/06/01 14:34:30;;;;;;;;;;;10.40;99.90;;;;;;5070987;28;20013;-75
2022/06/01 14:36:58;;;;;;;;;;;10.40;99.90;;;;;;5071053;28;19939;-75
2022/06/01 14:39:25;;;;;;;;;;;10.40;99.90;;;;;;5071106;28;19912;-75
2022/06/01 14:41:52;;;;;;;;;;;10.40;99.90;;;;;;5070706;28;20371;-75
2022/06/01 14:44:20;;;;;;;;;;;10.40;99.90;;;;;;5071077;28;19948;-75
2022/06/01 14:46:48;;;;;;;;;;;10.40;99.90;;;;;;5070788;28;19969;-75
2022/06/01 14:49:17;;;;;;;;;;;10.30;99.90;;;;;;5074887;28;19909;-75
2022/06/01 14:51:46;;;;;;;;;;;10.30;99.90;;;;;;5074829;28;19908;-75
2022/06/01 14:54:13;;;;;;;;;;;10.30;99.90;;;;;;5075250;28;19925;-75
2022/06/01 14:56:40;;;;;;;;;;;10.30;99.90;;;;;;5074812;28;19917;-75
2022/06/01 14:59:06;;;;;;;;;;;10.30;99.90;;;;;;5074755;28;19912;-75
2022/06/01 15:01:37;;;;;;;;;;;10.30;99.90;;;;;;5074886;28;20343;-75
2022/06/01 15:04:03;;;;;;;;;;;10.30;99.90;;;;;;5074993;28;19912;-75
2022/06/01 15:06:30;;;;;;;;;;;10.20;99.90;;;;;;5074917;28;20426;-75
2022/06/01 15:08:57;;;;;;;;;;;10.30;99.90;;;;;;5074761;28;19908;-75